Westworth Village, Texas
Current Conditions -  °F | °C
As of 3:24 AM on Thursday 18 Dec 2014 (Local Time) from KNFW Reporting Station
Haze Haze  
Wind Chill: 45°   Ceiling: 400
Heat Index: 47°   Visibility: 3mi
Dew Point: 41°   Wind: 5mph
Humidity: 80%   Direction: 80°E
Pressure: 30.16"   Gusts: NA
Location:  32.7763°N, 97.4092°W
Report Text: KNFW 180924Z AUTO 08004KT 3SM HZ OVC004 08/05 A3016 RMK AO2 VIS 2 N T00830050
Loading
Personal Weather Stations






























Interactive Weather Map New forecast layout! Learn more

10-Day Weather Forecast

Advertisements
Track Severe Weather on mobile